Shafer, Minnesota
Current Conditions -  °F | °C
As of 2:35 PM on Monday 26 Jan 2015 (Local Time) from KOEO Reporting Station
Overcast Overcast  
Wind Chill: 36°   Ceiling: 2400
Heat Index: 40°   Visibility: 10mi
Dew Point: 32°   Wind: 5mph
Humidity: 75%   Direction: 320°NW
Pressure: 29.75"   Gusts: NA
Location:  45.39°N, 92.75°W
Report Text: KOEO 262035Z AUTO 32004KT 10SM BKN024 OVC034 04/00 A2975 RMK AO2 T00430002
Loading
Personal Weather Stations






























Interactive Weather Map New forecast layout! Learn more

10-Day Weather Forecast

Advertisements
Track Severe Weather on mobile